sensor_id;sensor_type;location;lat;lon;timestamp;pressure;altitude;pressure_sealevel;temperature;humidity
55289;BME280;41154;45.394;5.734;2023-07-29T00:00:36;96755.09;;;18.91;100.00
55289;BME280;41154;45.394;5.734;2023-07-29T00:03:02;96758.81;;;18.95;100.00
55289;BME280;41154;45.394;5.734;2023-07-29T00:05:27;96759.66;;;19.04;100.00
55289;BME280;41154;45.394;5.734;2023-07-29T00:07:53;96764.34;;;19.13;100.00
55289;BME280;41154;45.394;5.734;2023-07-29T00:10:18;96760.28;;;19.01;100.00
55289;BME280;41154;45.394;5.734;2023-07-29T00:12:44;96759.25;;;18.89;100.00
55289;BME280;41154;45.394;5.734;2023-07-29T00:15:11;96760.84;;;19.12;100.00
55289;BME280;41154;45.394;5.734;2023-07-29T00:17:36;96767.69;;;19.10;100.00
55289;BME280;41154;45.394;5.734;2023-07-29T00:20:02;96760.84;;;19.12;100.00
55289;BME280;41154;45.394;5.734;2023-07-29T00:22:28;96757.44;;;19.38;100.00
55289;BME280;41154;45.394;5.734;2023-07-29T00:24:53;96759.13;;;19.25;100.00
55289;BME280;41154;45.394;5.734;2023-07-29T00:27:23;96766.09;;;19.40;100.00
55289;BME280;41154;45.394;5.734;2023-07-29T00:29:49;96760.84;;;19.12;100.00
55289;BME280;41154;45.394;5.734;2023-07-29T00:32:15;96771.56;;;19.49;100.00
55289;BME280;41154;45.394;5.734;2023-07-29T00:34:40;96767.34;;;19.34;100.00
55289;BME280;41154;45.394;5.734;2023-07-29T00:37:06;96776.09;;;18.99;100.00
55289;BME280;41154;45.394;5.734;2023-07-29T00:39:32;96775.59;;;18.97;100.00
55289;BME280;41154;45.394;5.734;2023-07-29T00:41:57;96788.44;;;19.06;100.00
55289;BME280;41154;45.394;5.734;2023-07-29T00:44:23;96781.44;;;19.13;100.00
55289;BME280;41154;45.394;5.734;2023-07-29T00:46:49;96792.91;;;19.01;100.00
55289;BME280;41154;45.394;5.734;2023-07-29T00:49:15;96773.63;;;18.89;100.00
55289;BME280;41154;45.394;5.734;2023-07-29T00:51:41;96777.56;;;18.83;100.00
55289;BME280;41154;45.394;5.734;2023-07-29T00:54:06;96774.28;;;18.72;100.00
55289;BME280;41154;45.394;5.734;2023-07-29T00:56:33;96769.63;;;18.73;100.00
55289;BME280;41154;45.394;5.734;2023-07-29T00:58:59;96775.06;;;18.73;100.00
55289;BME280;41154;45.394;5.734;2023-07-29T01:01:27;96777.44;;;18.88;100.00
55289;BME280;41154;45.394;5.734;2023-07-29T01:03:53;96775.38;;;18.71;100.00
55289;BME280;41154;45.394;5.734;2023-07-29T01:06:23;96773.81;;;19.15;100.00
55289;BME280;41154;45.394;5.734;2023-07-29T01:08:55;96775.91;;;18.96;100.00
55289;BME280;41154;45.394;5.734;2023-07-29T01:11:29;96768.81;;;18.86;100.00
55289;BME280;41154;45.394;5.734;2023-07-29T01:16:30;96780.59;;;19.04;100.00
55289;BME280;41154;45.394;5.734;2023-07-29T01:18:58;96780.06;;;18.93;100.00
55289;BME280;41154;45.394;5.734;2023-07-29T01:21:27;96766.69;;;18.83;100.00
55289;BME280;41154;45.394;5.734;2023-07-29T01:23:53;96769.53;;;19.00;100.00
55289;BME280;41154;45.394;5.734;2023-07-29T01:26:24;96769.09;;;19.07;100.00
55289;BME280;41154;45.394;5.734;2023-07-29T01:28:50;96767.31;;;18.80;100.00
55289;BME280;41154;45.394;5.734;2023-07-29T01:33:53;96773.28;;;18.68;100.00
55289;BME280;41154;45.394;5.734;2023-07-29T01:36:22;96764.16;;;18.64;100.00
55289;BME280;41154;45.394;5.734;2023-07-29T01:38:48;96772.03;;;18.52;100.00
55289;BME280;41154;45.394;5.734;2023-07-29T01:41:15;96770.91;;;18.53;100.00
55289;BME280;41154;45.394;5.734;2023-07-29T01:43:42;96768.91;;;18.58;100.00
55289;BME280;41154;45.394;5.734;2023-07-29T01:46:18;96765.81;;;18.74;100.00
55289;BME280;41154;45.394;5.734;2023-07-29T01:48:43;96773.41;;;18.63;100.00
55289;BME280;41154;45.394;5.734;2023-07-29T01:51:12;96772.97;;;18.47;100.00
55289;BME280;41154;45.394;5.734;2023-07-29T01:53:38;96757.78;;;18.46;100.00
55289;BME280;41154;45.394;5.734;2023-07-29T01:56:03;96751.25;;;18.47;100.00
55289;BME280;41154;45.394;5.734;2023-07-29T01:58:29;96755.72;;;18.29;100.00
55289;BME280;41154;45.394;5.734;2023-07-29T02:00:55;96767.38;;;18.29;100.00
55289;BME280;41154;45.394;5.734;2023-07-29T02:03:21;96760.84;;;18.30;100.00
55289;BME280;41154;45.394;5.734;2023-07-29T02:05:47;96759.25;;;18.29;100.00
55289;BME280;41154;45.394;5.734;2023-07-29T02:08:13;96761.44;;;18.27;100.00
55289;BME280;41154;45.394;5.734;2023-07-29T02:10:39;96762.34;;;18.23;100.00
55289;BME280;41154;45.394;5.734;2023-07-29T02:13:04;96765.38;;;18.21;100.00
55289;BME280;41154;45.394;5.734;2023-07-29T02:15:30;96764.44;;;18.40;100.00
55289;BME280;41154;45.394;5.734;2023-07-29T02:17:56;96761.53;;;18.59;100.00
55289;BME280;41154;45.394;5.734;2023-07-29T02:20:21;96769.84;;;18.40;100.00
55289;BME280;41154;45.394;5.734;2023-07-29T02:22:48;96769.41;;;18.24;100.00
55289;BME280;41154;45.394;5.734;2023-07-29T02:25:14;96769.22;;;18.20;100.00
55289;BME280;41154;45.394;5.734;2023-07-29T02:27:39;96769.94;;;18.48;100.00
55289;BME280;41154;45.394;5.734;2023-07-29T02:30:05;96758.16;;;18.17;100.00
55289;BME280;41154;45.394;5.734;2023-07-29T02:32:31;96763.88;;;18.15;100.00
55289;BME280;41154;45.394;5.734;2023-07-29T02:34:56;96774.06;;;17.95;100.00
55289;BME280;41154;45.394;5.734;2023-07-29T02:37:22;96770.53;;;18.09;100.00
55289;BME280;41154;45.394;5.734;2023-07-29T02:39:48;96766.72;;;17.96;100.00
55289;BME280;41154;45.394;5.734;2023-07-29T02:42:13;96760.69;;;18.13;100.00
55289;BME280;41154;45.394;5.734;2023-07-29T02:44:39;96762.66;;;18.21;100.00
55289;BME280;41154;45.394;5.734;2023-07-29T02:47:05;96757.34;;;18.16;100.00
55289;BME280;41154;45.394;5.734;2023-07-29T02:49:31;96750.03;;;18.03;100.00
55289;BME280;41154;45.394;5.734;2023-07-29T02:51:56;96743.63;;;17.99;100.00
55289;BME280;41154;45.394;5.734;2023-07-29T02:54:22;96743.72;;;17.93;100.00
55289;BME280;41154;45.394;5.734;2023-07-29T02:56:49;96743.31;;;18.00;100.00
55289;BME280;41154;45.394;5.734;2023-07-29T02:59:15;96731.44;;;17.82;100.00
55289;BME280;41154;45.394;5.734;2023-07-29T03:01:42;96740.50;;;17.77;100.00
55289;BME280;41154;45.394;5.734;2023-07-29T03:04:07;96736.50;;;17.47;100.00
55289;BME280;41154;45.394;5.734;2023-07-29T03:06:33;96735.00;;;17.55;100.00
55289;BME280;41154;45.394;5.734;2023-07-29T03:09:00;96731.88;;;17.48;100.00
55289;BME280;41154;45.394;5.734;2023-07-29T03:11:26;96729.88;;;17.39;100.00
55289;BME280;41154;45.394;5.734;2023-07-29T03:13:52;96738.00;;;17.39;100.00
55289;BME280;41154;45.394;5.734;2023-07-29T03:16:17;96729.03;;;17.39;100.00
55289;BME280;41154;45.394;5.734;2023-07-29T03:18:49;96733.97;;;17.37;100.00
55289;BME280;41154;45.394;5.734;2023-07-29T03:21:15;96734.88;;;17.32;100.00
55289;BME280;41154;45.394;5.734;2023-07-29T03:23:41;96716.28;;;17.25;100.00
55289;BME280;41154;45.394;5.734;2023-07-29T03:26:06;96715.88;;;17.32;100.00
55289;BME280;41154;45.394;5.734;2023-07-29T03:28:37;96716.00;;;17.27;100.00
55289;BME280;41154;45.394;5.734;2023-07-29T03:31:03;96697.03;;;17.27;100.00
55289;BME280;41154;45.394;5.734;2023-07-29T03:33:29;96706.97;;;17.32;100.00
55289;BME280;41154;45.394;5.734;2023-07-29T03:35:55;96702.75;;;17.25;100.00
55289;BME280;41154;45.394;5.734;2023-07-29T03:38:20;96695.81;;;17.33;100.00
55289;BME280;41154;45.394;5.734;2023-07-29T03:40:46;96692.81;;;17.35;100.00
55289;BME280;41154;45.394;5.734;2023-07-29T03:43:12;96691.91;;;17.39;100.00
55289;BME280;41154;45.394;5.734;2023-07-29T03:45:40;96691.50;;;17.18;100.00
55289;BME280;41154;45.394;5.734;2023-07-29T03:48:06;96689.91;;;17.17;100.00
55289;BME280;41154;45.394;5.734;2023-07-29T03:50:34;96704.97;;;17.23;100.00
55289;BME280;41154;45.394;5.734;2023-07-29T03:53:03;96703.31;;;16.95;100.00
55289;BME280;41154;45.394;5.734;2023-07-29T03:55:30;96698.06;;;16.84;100.00
55289;BME280;41154;45.394;5.734;2023-07-29T03:57:56;96711.66;;;16.79;100.00
55289;BME280;41154;45.394;5.734;2023-07-29T04:00:22;96711.53;;;16.89;100.00
55289;BME280;41154;45.394;5.734;2023-07-29T04:02:48;96721.38;;;16.99;100.00
55289;BME280;41154;45.394;5.734;2023-07-29T04:05:14;96719.44;;;16.86;100.00
55289;BME280;41154;45.394;5.734;2023-07-29T04:07:40;96722.69;;;16.69;100.00
55289;BME280;41154;45.394;5.734;2023-07-29T04:10:06;96721.91;;;16.82;100.00
55289;BME280;41154;45.394;5.734;2023-07-29T04:12:31;96725.81;;;16.76;100.00
55289;BME280;41154;45.394;5.734;2023-07-29T04:14:57;96719.44;;;16.86;100.00
55289;BME280;41154;45.394;5.734;2023-07-29T04:17:22;96727.28;;;17.01;100.00
55289;BME280;41154;45.394;5.734;2023-07-29T04:19:48;96730.81;;;17.02;100.00
55289;BME280;41154;45.394;5.734;2023-07-29T04:22:15;96731.91;;;17.01;100.00
55289;BME280;41154;45.394;5.734;2023-07-29T04:24:41;96729.34;;;17.10;100.00
55289;BME280;41154;45.394;5.734;2023-07-29T04:27:06;96725.91;;;17.04;100.00
55289;BME280;41154;45.394;5.734;2023-07-29T04:29:32;96722.41;;;17.03;100.00
55289;BME280;41154;45.394;5.734;2023-07-29T04:31:57;96717.97;;;17.07;100.00
55289;BME280;41154;45.394;5.734;2023-07-29T04:34:23;96727.78;;;16.89;100.00
55289;BME280;41154;45.394;5.734;2023-07-29T04:36:49;96729.38;;;16.91;100.00
55289;BME280;41154;45.394;5.734;2023-07-29T04:39:15;96727.59;;;17.00;100.00
55289;BME280;41154;45.394;5.734;2023-07-29T04:41:41;96718.78;;;17.08;100.00
55289;BME280;41154;45.394;5.734;2023-07-29T04:44:06;96721.22;;;17.23;100.00
55289;BME280;41154;45.394;5.734;2023-07-29T04:46:32;96731.66;;;17.16;100.00
55289;BME280;41154;45.394;5.734;2023-07-29T04:48:58;96724.00;;;17.18;100.00
55289;BME280;41154;45.394;5.734;2023-07-29T04:51:24;96723.34;;;17.27;100.00
55289;BME280;41154;45.394;5.734;2023-07-29T04:53:50;96733.88;;;17.28;100.00
55289;BME280;41154;45.394;5.734;2023-07-29T04:56:15;96733.66;;;17.24;100.00
55289;BME280;41154;45.394;5.734;2023-07-29T04:58:41;96731.47;;;17.54;100.00
55289;BME280;41154;45.394;5.734;2023-07-29T05:01:07;96727.44;;;17.38;100.00
55289;BME280;41154;45.394;5.734;2023-07-29T05:03:33;96723.44;;;17.35;100.00
55289;BME280;41154;45.394;5.734;2023-07-29T05:06:00;96726.25;;;17.30;100.00
55289;BME280;41154;45.394;5.734;2023-07-29T05:08:27;96723.03;;;17.42;100.00
55289;BME280;41154;45.394;5.734;2023-07-29T05:10:52;96722.13;;;17.33;100.00
55289;BME280;41154;45.394;5.734;2023-07-29T05:13:19;96728.53;;;17.23;100.00
55289;BME280;41154;45.394;5.734;2023-07-29T05:15:45;96716.16;;;17.03;100.00
55289;BME280;41154;45.394;5.734;2023-07-29T05:18:11;96714.94;;;16.95;100.00
55289;BME280;41154;45.394;5.734;2023-07-29T05:20:36;96715.50;;;17.11;100.00
55289;BME280;41154;45.394;5.734;2023-07-29T05:23:02;96718.31;;;17.34;100.00
55289;BME280;41154;45.394;5.734;2023-07-29T05:25:28;96718.00;;;17.35;100.00
55289;BME280;41154;45.394;5.734;2023-07-29T05:27:54;96717.38;;;17.24;100.00
55289;BME280;41154;45.394;5.734;2023-07-29T05:30:20;96722.22;;;17.55;100.00
55289;BME280;41154;45.394;5.734;2023-07-29T05:32:45;96729.41;;;18.75;100.00
55289;BME280;41154;45.394;5.734;2023-07-29T05:35:11;96728.72;;;20.82;100.00
55289;BME280;41154;45.394;5.734;2023-07-29T05:37:40;96740.22;;;22.42;100.00
55289;BME280;41154;45.394;5.734;2023-07-29T05:40:06;96741.63;;;23.48;100.00
55289;BME280;41154;45.394;5.734;2023-07-29T05:42:33;96739.22;;;24.21;100.00
55289;BME280;41154;45.394;5.734;2023-07-29T05:44:59;96743.84;;;24.57;100.00
55289;BME280;41154;45.394;5.734;2023-07-29T05:47:24;96745.72;;;25.74;96.93
55289;BME280;41154;45.394;5.734;2023-07-29T05:49:50;96748.84;;;25.72;97.04
55289;BME280;41154;45.394;5.734;2023-07-29T05:52:15;96743.28;;;26.55;92.49
55289;BME280;41154;45.394;5.734;2023-07-29T05:54:41;96738.16;;;27.36;84.32
55289;BME280;41154;45.394;5.734;2023-07-29T05:57:09;96732.44;;;27.94;78.50
55289;BME280;41154;45.394;5.734;2023-07-29T05:59:34;96726.69;;;25.33;92.28
55289;BME280;41154;45.394;5.734;2023-07-29T06:02:00;96733.56;;;26.42;89.72
55289;BME280;41154;45.394;5.734;2023-07-29T06:04:25;96737.16;;;26.82;88.14
55289;BME280;41154;45.394;5.734;2023-07-29T06:06:51;96748.50;;;27.42;85.15
55289;BME280;41154;45.394;5.734;2023-07-29T06:09:17;96751.72;;;27.94;83.66
55289;BME280;41154;45.394;5.734;2023-07-29T06:11:43;96750.47;;;28.15;79.77
55289;BME280;41154;45.394;5.734;2023-07-29T06:14:09;96758.50;;;28.24;76.80
55289;BME280;41154;45.394;5.734;2023-07-29T06:16:34;96763.16;;;28.20;77.47
55289;BME280;41154;45.394;5.734;2023-07-29T06:19:00;96760.59;;;29.25;72.19
55289;BME280;41154;45.394;5.734;2023-07-29T06:21:25;96755.16;;;28.68;70.76
55289;BME280;41154;45.394;5.734;2023-07-29T06:23:51;96757.06;;;25.72;94.08
55289;BME280;41154;45.394;5.734;2023-07-29T06:26:16;96754.91;;;24.61;100.00
55289;BME280;41154;45.394;5.734;2023-07-29T06:28:42;96765.09;;;23.49;100.00
55289;BME280;41154;45.394;5.734;2023-07-29T06:31:07;96769.50;;;23.17;100.00
55289;BME280;41154;45.394;5.734;2023-07-29T06:33:33;96752.28;;;22.83;100.00
55289;BME280;41154;45.394;5.734;2023-07-29T06:35:58;96754.75;;;22.34;100.00
55289;BME280;41154;45.394;5.734;2023-07-29T06:38:24;96761.59;;;24.23;100.00
55289;BME280;41154;45.394;5.734;2023-07-29T06:40:49;96768.16;;;26.08;99.87
55289;BME280;41154;45.394;5.734;2023-07-29T06:43:15;96775.81;;;27.74;89.69
55289;BME280;41154;45.394;5.734;2023-07-29T06:45:41;96781.00;;;29.99;74.59
55289;BME280;41154;45.394;5.734;2023-07-29T06:48:07;96786.22;;;27.38;90.54
55289;BME280;41154;45.394;5.734;2023-07-29T06:50:32;96792.19;;;26.46;90.86
55289;BME280;41154;45.394;5.734;2023-07-29T06:52:58;96793.47;;;26.33;90.14
55289;BME280;41154;45.394;5.734;2023-07-29T06:55:23;96796.19;;;25.21;99.80
55289;BME280;41154;45.394;5.734;2023-07-29T06:57:49;96790.22;;;26.82;91.55
55289;BME280;41154;45.394;5.734;2023-07-29T07:00:14;96782.06;;;25.99;94.31
55289;BME280;41154;45.394;5.734;2023-07-29T07:02:40;96779.94;;;24.47;100.00
55289;BME280;41154;45.394;5.734;2023-07-29T07:05:08;96786.06;;;24.16;100.00
55289;BME280;41154;45.394;5.734;2023-07-29T07:07:33;96782.53;;;23.32;100.00
55289;BME280;41154;45.394;5.734;2023-07-29T07:09:59;96780.44;;;23.63;100.00
55289;BME280;41154;45.394;5.734;2023-07-29T07:12:25;96780.09;;;23.64;100.00
55289;BME280;41154;45.394;5.734;2023-07-29T07:18:25;96797.13;;;27.77;88.00
55289;BME280;41154;45.394;5.734;2023-07-29T07:20:51;96798.47;;;27.21;90.18
55289;BME280;41154;45.394;5.734;2023-07-29T07:23:17;96810.53;;;28.82;84.75
55289;BME280;41154;45.394;5.734;2023-07-29T07:25:42;96816.94;;;28.33;82.66
55289;BME280;41154;45.394;5.734;2023-07-29T07:28:08;96841.19;;;28.74;83.16
55289;BME280;41154;45.394;5.734;2023-07-29T07:30:34;96832.41;;;27.68;89.79
55289;BME280;41154;45.394;5.734;2023-07-29T07:32:59;96828.00;;;26.14;96.27
55289;BME280;41154;45.394;5.734;2023-07-29T07:35:25;96836.59;;;25.81;100.00
55289;BME280;41154;45.394;5.734;2023-07-29T07:37:50;96837.66;;;25.32;100.00
55289;BME280;41154;45.394;5.734;2023-07-29T07:40:16;96839.59;;;25.03;100.00
55289;BME280;41154;45.394;5.734;2023-07-29T07:42:41;96835.41;;;25.50;100.00
55289;BME280;41154;45.394;5.734;2023-07-29T07:45:07;96842.09;;;25.37;99.34
55289;BME280;41154;45.394;5.734;2023-07-29T07:47:32;96832.41;;;24.58;100.00
55289;BME280;41154;45.394;5.734;2023-07-29T07:49:59;96815.84;;;24.42;100.00
55289;BME280;41154;45.394;5.734;2023-07-29T07:52:24;96817.91;;;24.33;100.00
55289;BME280;41154;45.394;5.734;2023-07-29T07:54:53;96817.25;;;24.76;98.75
55289;BME280;41154;45.394;5.734;2023-07-29T07:57:19;96816.38;;;27.31;84.87
55289;BME280;41154;45.394;5.734;2023-07-29T07:59:45;96820.91;;;26.13;93.21
55289;BME280;41154;45.394;5.734;2023-07-29T08:02:10;96814.44;;;25.01;99.97
55289;BME280;41154;45.394;5.734;2023-07-29T08:04:36;96811.38;;;24.50;100.00
55289;BME280;41154;45.394;5.734;2023-07-29T08:07:02;96809.34;;;24.87;100.00
55289;BME280;41154;45.394;5.734;2023-07-29T08:09:28;96806.41;;;25.37;96.21
55289;BME280;41154;45.394;5.734;2023-07-29T08:11:53;96798.13;;;26.48;88.88
55289;BME280;41154;45.394;5.734;2023-07-29T08:14:19;96801.97;;;27.38;84.23
55289;BME280;41154;45.394;5.734;2023-07-29T08:16:44;96801.66;;;25.81;89.57
55289;BME280;41154;45.394;5.734;2023-07-29T08:25:54;96787.34;;;31.86;66.65
55289;BME280;41154;45.394;5.734;2023-07-29T08:28:22;96787.69;;;34.09;59.70
55289;BME280;41154;45.394;5.734;2023-07-29T08:30:48;96795.97;;;32.75;55.34
55289;BME280;41154;45.394;5.734;2023-07-29T08:33:14;96786.84;;;30.39;62.97
55289;BME280;41154;45.394;5.734;2023-07-29T08:35:40;96796.59;;;28.45;70.68
55289;BME280;41154;45.394;5.734;2023-07-29T08:38:05;96785.22;;;28.20;71.03
55289;BME280;41154;45.394;5.734;2023-07-29T08:40:34;96787.00;;;27.39;72.70
55289;BME280;41154;45.394;5.734;2023-07-29T08:43:01;96777.06;;;27.77;73.62
55289;BME280;41154;45.394;5.734;2023-07-29T08:45:29;96782.28;;;27.39;79.16
55289;BME280;41154;45.394;5.734;2023-07-29T08:47:56;96773.53;;;26.55;83.86
55289;BME280;41154;45.394;5.734;2023-07-29T08:50:23;96772.72;;;26.71;87.91
55289;BME280;41154;45.394;5.734;2023-07-29T08:52:50;96774.22;;;26.88;80.14
55289;BME280;41154;45.394;5.734;2023-07-29T08:55:17;96774.03;;;26.61;82.83
55289;BME280;41154;45.394;5.734;2023-07-29T08:57:42;96776.72;;;26.58;89.23
55289;BME280;41154;45.394;5.734;2023-07-29T09:00:08;96779.06;;;26.75;87.87
55289;BME280;41154;45.394;5.734;2023-07-29T09:02:34;96767.91;;;26.87;80.42
55289;BME280;41154;45.394;5.734;2023-07-29T09:05:01;96777.06;;;27.77;76.29
55289;BME280;41154;45.394;5.734;2023-07-29T09:07:28;96777.59;;;27.40;76.56
55289;BME280;41154;45.394;5.734;2023-07-29T09:09:54;96775.59;;;27.83;73.12
55289;BME280;41154;45.394;5.734;2023-07-29T09:12:19;96772.88;;;27.40;74.83
55289;BME280;41154;45.394;5.734;2023-07-29T09:14:45;96776.69;;;27.55;76.47
55289;BME280;41154;45.394;5.734;2023-07-29T09:17:10;96769.63;;;28.04;74.05
55289;BME280;41154;45.394;5.734;2023-07-29T09:23:11;96781.50;;;27.85;77.40
55289;BME280;41154;45.394;5.734;2023-07-29T09:25:37;96779.28;;;28.44;78.54
55289;BME280;41154;45.394;5.734;2023-07-29T09:28:12;96772.28;;;29.97;72.20
55289;BME280;41154;45.394;5.734;2023-07-29T09:30:39;96777.25;;;30.29;66.99
55289;BME280;41154;45.394;5.734;2023-07-29T09:33:04;96790.44;;;30.46;68.55
55289;BME280;41154;45.394;5.734;2023-07-29T09:35:32;96783.22;;;31.01;66.68
55289;BME280;41154;45.394;5.734;2023-07-29T09:37:58;96781.22;;;30.28;66.55
55289;BME280;41154;45.394;5.734;2023-07-29T09:40:24;96788.59;;;28.93;68.17
55289;BME280;41154;45.394;5.734;2023-07-29T09:42:50;96783.13;;;29.72;67.19
55289;BME280;41154;45.394;5.734;2023-07-29T09:45:23;96782.28;;;28.62;70.60
55289;BME280;41154;45.394;5.734;2023-07-29T09:47:49;96786.69;;;27.90;73.22
55289;BME280;41154;45.394;5.734;2023-07-29T09:50:15;96776.75;;;26.97;77.52
55289;BME280;41154;45.394;5.734;2023-07-29T09:52:42;96785.16;;;27.04;80.60
55289;BME280;41154;45.394;5.734;2023-07-29T09:55:17;96776.00;;;27.85;85.46
55289;BME280;41154;45.394;5.734;2023-07-29T09:57:44;96786.34;;;27.46;80.19
55289;BME280;41154;45.394;5.734;2023-07-29T10:00:11;96777.09;;;28.04;75.83
55289;BME280;41154;45.394;5.734;2023-07-29T10:02:38;96778.38;;;27.40;79.71
55289;BME280;41154;45.394;5.734;2023-07-29T10:05:04;96786.28;;;27.42;81.63
55289;BME280;41154;45.394;5.734;2023-07-29T10:07:30;96776.06;;;27.66;82.00
55289;BME280;41154;45.394;5.734;2023-07-29T10:09:56;96784.59;;;27.80;80.08
55289;BME280;41154;45.394;5.734;2023-07-29T10:12:24;96775.94;;;27.82;77.10
55289;BME280;41154;45.394;5.734;2023-07-29T10:14:50;96777.91;;;27.35;79.75
55289;BME280;41154;45.394;5.734;2023-07-29T10:17:16;96776.09;;;27.92;78.34
55289;BME280;41154;45.394;5.734;2023-07-29T10:19:45;96771.19;;;27.78;76.27
55289;BME280;41154;45.394;5.734;2023-07-29T10:22:11;96772.75;;;28.29;71.53
55289;BME280;41154;45.394;5.734;2023-07-29T10:24:38;96765.16;;;29.14;66.00
55289;BME280;41154;45.394;5.734;2023-07-29T10:27:06;96767.75;;;29.33;67.29
55289;BME280;41154;45.394;5.734;2023-07-29T10:29:32;96769.59;;;28.88;66.44
55289;BME280;41154;45.394;5.734;2023-07-29T10:32:02;96775.38;;;29.10;66.41
55289;BME280;41154;45.394;5.734;2023-07-29T10:34:31;96765.00;;;28.39;70.03
55289;BME280;41154;45.394;5.734;2023-07-29T10:36:56;96763.69;;;28.29;76.36
